Time;durP1;ratioP1;P1;durP2;ratioP2;P2;SDS_P1;SDS_P2;PMS_P1;PMS_P2;Temp;Humidity;BMP_temperature;BMP_pressure;BME280_temperature;BME280_humidity;BME280_pressure;Samples;Min_cycle;Max_cycle;Signal;HPM_P1;HPM_P2
2022/07/04 00:00:17;;;;;;;6.95;5.13;;;27.70;99.90;;;;;;4995954;28;20097;-73
2022/07/04 00:02:43;;;;;;;5.47;4.97;;;27.70;99.90;;;;;;4995845;28;20384;-71
2022/07/04 00:05:11;;;;;;;5.28;4.78;;;27.70;99.90;;;;;;4995240;28;20053;-70
2022/07/04 00:07:41;;;;;;;4.50;4.20;;;27.70;99.90;;;;;;4995719;28;20031;-72
2022/07/04 00:10:08;;;;;;;4.57;4.18;;;27.80;99.90;;;;;;4995602;28;20081;-72
2022/07/04 00:12:34;;;;;;;4.63;4.22;;;28.00;99.80;;;;;;4994825;28;20524;-70
2022/07/04 00:15:01;;;;;;;5.30;4.78;;;28.10;99.80;;;;;;4995691;28;20015;-69
2022/07/04 00:17:27;;;;;;;5.18;4.78;;;28.10;99.60;;;;;;4995528;28;20030;-73
2022/07/04 00:19:52;;;;;;;6.30;5.22;;;28.00;99.40;;;;;;4995191;28;20492;-70
2022/07/04 00:22:18;;;;;;;5.70;5.10;;;27.90;99.90;;;;;;4995320;28;20023;-68
2022/07/04 00:24:44;;;;;;;4.80;4.40;;;27.70;99.90;;;;;;4995438;28;20027;-73
2022/07/04 00:27:10;;;;;;;5.10;4.68;;;27.80;99.90;;;;;;4994726;28;20042;-71
2022/07/04 00:29:35;;;;;;;5.13;4.72;;;27.80;99.90;;;;;;4995068;28;20027;-70
2022/07/04 00:32:02;;;;;;;5.03;4.63;;;27.80;99.90;;;;;;4994206;28;20026;-72
2022/07/04 00:34:27;;;;;;;4.72;4.10;;;27.80;99.90;;;;;;4995132;28;20069;-70
2022/07/04 00:36:53;;;;;;;4.72;4.32;;;27.90;99.90;;;;;;4993707;28;20022;-69
2022/07/04 00:39:19;;;;;;;4.00;3.70;;;27.80;99.90;;;;;;4995050;28;20029;-72
2022/07/04 00:41:46;;;;;;;4.25;3.92;;;27.90;99.90;;;;;;4995075;28;20018;-71
2022/07/04 00:44:13;;;;;;;8.88;6.38;;;28.00;99.90;;;;;;5010007;28;20049;-73
2022/07/04 00:46:40;;;;;;;6.45;5.85;;;27.80;99.90;;;;;;4994834;28;20018;-73
2022/07/04 00:49:07;;;;;;;5.85;5.30;;;27.50;99.90;;;;;;4994659;28;20385;-71
2022/07/04 00:51:33;;;;;;;7.55;6.45;;;27.40;99.90;;;;;;5009763;28;20389;-71
2022/07/04 00:53:58;;;;;;;7.68;6.40;;;27.30;99.90;;;;;;4994804;28;20084;-69
2022/07/04 00:56:25;;;;;;;6.53;5.90;;;27.20;99.90;;;;;;4994831;28;20022;-71
2022/07/04 00:58:52;;;;;;;5.93;5.38;;;27.10;99.90;;;;;;4994643;28;20512;-68
2022/07/04 01:01:19;;;;;;;5.35;4.95;;;27.20;99.90;;;;;;4994688;28;20022;-71
2022/07/04 01:03:45;;;;;;;4.65;4.30;;;27.30;99.90;;;;;;4994703;28;20022;-71
2022/07/04 01:06:11;;;;;;;5.40;4.97;;;27.30;99.90;;;;;;4994385;28;20034;-72
2022/07/04 01:08:42;;;;;;;7.45;6.72;;;27.40;99.90;;;;;;4994591;28;20030;-68
2022/07/04 01:11:09;;;;;;;7.35;6.50;;;27.30;99.90;;;;;;4994608;28;20465;-71
2022/07/04 01:13:35;;;;;;;7.53;6.82;;;27.10;99.90;;;;;;4994220;28;20082;-69
2022/07/04 01:16:01;;;;;;;6.78;6.18;;;26.90;99.90;;;;;;4994459;28;20033;-71
2022/07/04 01:18:27;;;;;;;6.82;6.22;;;26.80;99.90;;;;;;4994275;28;20026;-69
2022/07/04 01:20:52;;;;;;;7.60;6.97;;;26.80;99.90;;;;;;4994307;28;20048;-69
2022/07/04 01:23:18;;;;;;;6.85;6.35;;;26.70;99.90;;;;;;4994377;28;20058;-71
2022/07/04 01:25:44;;;;;;;9.00;8.07;;;26.70;99.90;;;;;;4994373;28;20416;-73
2022/07/04 01:28:10;;;;;;;10.75;8.57;;;26.60;99.90;;;;;;4994147;28;20213;-69
2022/07/04 01:30:37;;;;;;;8.85;8.00;;;26.40;99.90;;;;;;5009519;28;20038;-69
2022/07/04 01:33:03;;;;;;;8.38;7.57;;;26.20;99.90;;;;;;4992791;28;20495;-70
2022/07/04 01:35:29;;;;;;;7.10;6.50;;;26.20;99.90;;;;;;4994122;28;20026;-68
2022/07/04 01:37:55;;;;;;;6.20;5.70;;;26.40;99.90;;;;;;4994181;28;20108;-73
2022/07/04 01:40:21;;;;;;;6.35;5.85;;;26.50;99.90;;;;;;4994117;28;20108;-69
2022/07/04 01:42:47;;;;;;;5.88;5.10;;;26.60;99.90;;;;;;4994055;28;20493;-72
2022/07/04 01:45:13;;;;;;;5.03;4.57;;;26.70;99.90;;;;;;4992770;28;20117;-71
2022/07/04 01:47:40;;;;;;;5.28;4.88;;;26.80;99.90;;;;;;4992544;28;20056;-72
2022/07/04 01:50:08;;;;;;;4.65;4.32;;;26.90;99.90;;;;;;4992987;28;20072;-69
2022/07/04 01:52:33;;;;;;;4.00;3.72;;;27.00;99.90;;;;;;4993869;28;20103;-69
2022/07/04 01:54:59;;;;;;;4.82;4.07;;;27.00;99.90;;;;;;5009364;28;20042;-70
2022/07/04 01:57:25;;;;;;;4.70;4.40;;;27.10;99.90;;;;;;4992728;28;20500;-71
2022/07/04 02:02:36;;;;;;;6.05;5.55;;;27.10;99.90;;;;;;4993774;28;20149;-69
2022/07/04 02:05:02;;;;;;;5.13;4.70;;;27.00;99.90;;;;;;4994124;28;20026;-70
2022/07/04 02:07:27;;;;;;;4.93;4.53;;;26.90;99.90;;;;;;4993803;28;20040;-71
2022/07/04 02:09:53;;;;;;;5.32;4.80;;;27.00;99.90;;;;;;4993801;28;20480;-69
2022/07/04 02:15:23;;;;;;;4.10;3.80;;;27.00;99.90;;;;;;4953031;28;20026;-70
2022/07/04 02:17:48;;;;;;;3.80;3.50;;;27.00;99.90;;;;;;4952899;29;20027;-72
2022/07/04 02:20:14;;;;;;;4.20;3.70;;;27.10;99.90;;;;;;4971993;28;20461;-71
2022/07/04 02:22:40;;;;;;;3.63;3.40;;;27.00;99.90;;;;;;4993692;28;20018;-70
2022/07/04 02:25:06;;;;;;;3.55;3.28;;;27.00;99.90;;;;;;4992402;28;20033;-68
2022/07/04 02:27:32;;;;;;;3.88;3.58;;;27.00;99.90;;;;;;4993708;28;20041;-71
2022/07/04 02:29:57;;;;;;;3.83;3.53;;;27.00;99.90;;;;;;4993676;28;20027;-70
2022/07/04 02:32:23;;;;;;;4.20;3.90;;;26.90;99.90;;;;;;4993435;28;20018;-71
2022/07/04 02:34:49;;;;;;;3.63;3.33;;;26.90;99.90;;;;;;4993942;28;20022;-71
2022/07/04 02:37:15;;;;;;;3.97;3.67;;;26.80;99.90;;;;;;4993614;28;20102;-70
2022/07/04 02:39:41;;;;;;;4.20;3.85;;;26.80;99.90;;;;;;4992199;28;20058;-72
2022/07/04 02:42:06;;;;;;;4.68;4.28;;;26.80;99.90;;;;;;5008635;28;20022;-70
2022/07/04 02:44:32;;;;;;;4.35;3.95;;;26.80;99.90;;;;;;4993579;28;20026;-73
2022/07/04 02:46:58;;;;;;;5.00;4.60;;;26.80;99.90;;;;;;4993258;28;20034;-69
2022/07/04 02:49:24;;;;;;;4.22;3.92;;;26.70;99.90;;;;;;4993405;28;20037;-71
2022/07/04 02:51:49;;;;;;;3.78;3.47;;;26.70;99.90;;;;;;4995204;28;20101;-68
2022/07/04 02:54:15;;;;;;;4.68;3.70;;;26.70;99.90;;;;;;4995861;28;20033;-70
2022/07/04 02:56:41;;;;;;;4.07;3.70;;;26.70;99.90;;;;;;4997168;28;20018;-72
2022/07/04 02:59:07;;;;;;;3.80;3.50;;;26.80;99.90;;;;;;4996997;28;20366;-73
2022/07/04 03:01:33;;;;;;;4.03;3.72;;;26.70;99.90;;;;;;4996686;28;20049;-69
2022/07/04 03:03:59;;;;;;;4.30;3.92;;;26.70;99.90;;;;;;5011882;28;20022;-71
2022/07/04 03:06:25;;;;;;;5.25;4.65;;;26.60;99.90;;;;;;4996939;28;20145;-70
2022/07/04 03:08:52;;;;;;;4.88;4.47;;;26.60;99.90;;;;;;4996780;28;20038;-70
2022/07/04 03:11:18;;;;;;;4.32;4.03;;;26.60;99.90;;;;;;4996844;28;20041;-72
2022/07/04 03:13:44;;;;;;;5.13;3.50;;;26.60;99.90;;;;;;4996414;28;20058;-72
2022/07/04 03:16:10;;;;;;;4.20;3.90;;;26.60;99.90;;;;;;4996484;28;20029;-72
2022/07/04 03:18:36;;;;;;;3.90;3.60;;;26.60;99.90;;;;;;4996615;28;20030;-72
2022/07/04 03:21:05;;;;;;;3.60;2.97;;;26.60;99.90;;;;;;4996765;28;20109;-72
2022/07/04 03:23:32;;;;;;;3.13;2.92;;;26.60;99.90;;;;;;4995260;28;20034;-70
2022/07/04 03:25:57;;;;;;;3.72;3.42;;;26.60;99.90;;;;;;4996582;28;20026;-69
2022/07/04 03:28:23;;;;;;;3.85;3.60;;;26.60;99.90;;;;;;4996329;28;20400;-68
2022/07/04 03:30:49;;;;;;;4.00;3.70;;;26.50;99.90;;;;;;4996241;28;20101;-72
2022/07/04 03:33:14;;;;;;;4.15;3.83;;;26.50;99.90;;;;;;4996499;28;20023;-69
2022/07/04 03:35:40;;;;;;;4.40;4.10;;;26.50;99.90;;;;;;4996209;28;20392;-71
2022/07/04 03:38:06;;;;;;;4.00;3.70;;;26.40;99.90;;;;;;4996344;28;20052;-70
2022/07/04 03:40:32;;;;;;;4.38;3.97;;;26.40;99.90;;;;;;4996264;28;20025;-70
2022/07/04 03:42:59;;;;;;;3.33;3.13;;;26.50;99.90;;;;;;5011233;28;20037;-72
2022/07/04 03:45:24;;;;;;;4.28;3.80;;;26.40;99.90;;;;;;4995901;28;20033;-70
2022/07/04 03:47:50;;;;;;;3.47;2.85;;;26.50;99.90;;;;;;4995080;28;20038;-70
2022/07/04 03:50:17;;;;;;;3.88;3.38;;;26.50;99.90;;;;;;4996011;28;20098;-72
2022/07/04 03:52:42;;;;;;;2.90;2.70;;;26.50;99.90;;;;;;4996256;28;20027;-72
2022/07/04 03:55:09;;;;;;;3.55;3.25;;;26.50;99.90;;;;;;4996011;28;20027;-71
2022/07/04 03:57:34;;;;;;;3.53;3.22;;;26.50;99.90;;;;;;4995852;28;20027;-71
2022/07/04 04:00:00;;;;;;;3.33;3.13;;;26.50;99.90;;;;;;4995679;28;20117;-68
2022/07/04 04:02:26;;;;;;;3.70;3.40;;;26.50;99.90;;;;;;4993394;28;20018;-72
2022/07/04 04:07:35;;;;;;;3.47;3.17;;;26.50;99.90;;;;;;4995981;28;20034;-71
2022/07/04 04:10:01;;;;;;;3.58;3.28;;;26.60;99.90;;;;;;4995673;28;20022;-69
2022/07/04 04:12:27;;;;;;;4.53;4.00;;;26.60;99.90;;;;;;4995218;28;20049;-69
2022/07/04 04:14:53;;;;;;;6.43;4.72;;;26.50;99.90;;;;;;4995652;28;20037;-70
2022/07/04 04:17:19;;;;;;;5.55;5.05;;;26.40;99.90;;;;;;4995530;28;20010;-73
2022/07/04 04:19:44;;;;;;;4.70;4.30;;;26.30;99.90;;;;;;4995388;28;20389;-71
2022/07/04 04:22:10;;;;;;;4.63;4.15;;;26.20;99.90;;;;;;5010407;28;20560;-72
2022/07/04 04:24:36;;;;;;;4.28;3.97;;;26.30;99.90;;;;;;4994195;28;20023;-74
2022/07/04 04:27:01;;;;;;;4.10;3.80;;;26.40;99.90;;;;;;4995119;28;20029;-69
2022/07/04 04:29:27;;;;;;;5.13;3.83;;;26.50;99.90;;;;;;4995276;28;20057;-68
2022/07/04 04:31:53;;;;;;;4.20;3.90;;;26.50;99.90;;;;;;4995310;28;20054;-72
2022/07/04 04:34:18;;;;;;;4.10;3.70;;;26.50;99.90;;;;;;4995226;28;20073;-69
2022/07/04 04:36:44;;;;;;;4.38;4.07;;;26.50;99.90;;;;;;4995053;28;20023;-71
2022/07/04 04:39:10;;;;;;;5.20;4.40;;;26.60;99.90;;;;;;4993879;28;20018;-69
2022/07/04 04:41:35;;;;;;;3.78;3.47;;;26.60;99.90;;;;;;4994925;28;20052;-69
2022/07/04 04:44:01;;;;;;;3.67;3.38;;;26.60;99.90;;;;;;4994907;28;20029;-72
2022/07/04 04:46:27;;;;;;;3.97;3.45;;;26.80;99.90;;;;;;5010040;28;20027;-70
2022/07/04 04:48:53;;;;;;;3.65;3.35;;;26.90;99.90;;;;;;4994858;28;20030;-72
2022/07/04 04:51:18;;;;;;;3.17;2.92;;;26.90;99.90;;;;;;4994829;28;20489;-72
2022/07/04 04:53:44;;;;;;;3.63;3.33;;;27.10;99.90;;;;;;5009906;28;20027;-69
2022/07/04 04:56:10;;;;;;;3.33;3.13;;;27.10;99.90;;;;;;4994610;28;20501;-69
2022/07/04 04:58:35;;;;;;;3.60;3.40;;;27.20;99.90;;;;;;4993420;28;20018;-68
2022/07/04 05:01:02;;;;;;;4.03;3.72;;;27.30;99.90;;;;;;4987788;28;20400;-68
2022/07/04 05:03:28;;;;;;;4.28;3.97;;;27.30;99.90;;;;;;4992423;28;20019;-70
2022/07/04 05:05:54;;;;;;;3.80;3.50;;;27.50;99.90;;;;;;4994504;28;20088;-68
2022/07/04 05:08:20;;;;;;;3.50;3.20;;;27.50;99.90;;;;;;4994217;28;20473;-68
2022/07/04 05:10:45;;;;;;;3.70;3.40;;;27.50;99.90;;;;;;4992861;28;20022;-68
2022/07/04 05:13:11;;;;;;;3.78;3.47;;;27.60;99.90;;;;;;4994429;28;20437;-68
2022/07/04 05:15:37;;;;;;;5.10;4.07;;;27.60;99.90;;;;;;4994100;28;20026;-68
2022/07/04 05:18:03;;;;;;;4.60;3.80;;;27.70;99.70;;;;;;4994251;28;20034;-68
2022/07/04 05:20:29;;;;;;;3.80;3.50;;;27.80;99.90;;;;;;4993166;28;20023;-68
2022/07/04 05:22:54;;;;;;;3.55;3.33;;;27.80;99.90;;;;;;4994072;28;20026;-68
2022/07/04 05:25:20;;;;;;;3.85;3.65;;;27.90;99.80;;;;;;4994048;28;20037;-68
2022/07/04 05:27:46;;;;;;;3.50;3.20;;;27.90;99.50;;;;;;4994074;28;20084;-68
2022/07/04 05:30:12;;;;;;;3.30;3.10;;;27.80;99.90;;;;;;4992319;28;20026;-69
2022/07/04 05:32:40;;;;;;;3.42;3.08;;;27.90;99.60;;;;;;4992186;28;20018;-69
2022/07/04 05:35:07;;;;;;;2.67;2.47;;;28.00;99.60;;;;;;4992182;28;20105;-68
2022/07/04 05:37:33;;;;;;;3.70;3.40;;;28.10;99.50;;;;;;4992045;28;20023;-68
2022/07/04 05:39:59;;;;;;;4.30;3.33;;;28.20;99.20;;;;;;4991964;28;20025;-68
2022/07/04 05:42:25;;;;;;;4.20;3.80;;;28.30;99.20;;;;;;4992088;28;20026;-69
2022/07/04 05:44:51;;;;;;;5.07;4.65;;;28.30;99.40;;;;;;4992570;28;20097;-68
2022/07/04 05:47:17;;;;;;;7.45;5.70;;;28.20;99.10;;;;;;4992820;28;20126;-68
2022/07/04 05:49:43;;;;;;;5.72;5.25;;;28.00;99.10;;;;;;4992573;28;20022;-68
2022/07/04 05:52:08;;;;;;;9.45;5.82;;;28.00;99.40;;;;;;4992604;28;20026;-69
2022/07/04 05:54:34;;;;;;;6.70;5.05;;;28.10;99.30;;;;;;4992294;28;20098;-68
2022/07/04 05:57:00;;;;;;;5.20;4.80;;;28.20;99.00;;;;;;4992527;28;20018;-68
2022/07/04 05:59:26;;;;;;;4.40;4.00;;;28.30;99.00;;;;;;4992154;28;20029;-68
2022/07/04 06:01:51;;;;;;;5.93;5.32;;;28.50;99.00;;;;;;4992918;28;20022;-68
2022/07/04 06:04:17;;;;;;;4.60;4.15;;;28.60;98.40;;;;;;4993714;28;20023;-68
2022/07/04 06:06:43;;;;;;;4.30;3.90;;;28.80;98.30;;;;;;4993606;28;20117;-68
2022/07/04 06:09:09;;;;;;;7.07;5.10;;;29.00;97.90;;;;;;4993256;28;20102;-69
2022/07/04 06:11:34;;;;;;;4.45;4.10;;;29.00;97.50;;;;;;4993689;28;20023;-68
2022/07/04 06:14:00;;;;;;;4.18;3.95;;;29.00;97.50;;;;;;4992174;28;20046;-68
2022/07/04 06:16:26;;;;;;;4.65;4.22;;;29.00;97.50;;;;;;4993603;28;20022;-68
2022/07/04 06:18:52;;;;;;;5.40;4.90;;;29.20;97.20;;;;;;4993555;28;20080;-68
2022/07/04 06:21:18;;;;;;;4.53;4.22;;;29.30;97.10;;;;;;4993330;28;20100;-68
2022/07/04 06:23:44;;;;;;;5.47;4.93;;;29.30;97.00;;;;;;4992195;28;20030;-68
2022/07/04 06:26:10;;;;;;;4.60;4.20;;;29.50;97.50;;;;;;4991100;28;20034;-69
2022/07/04 06:28:35;;;;;;;4.93;4.63;;;29.50;96.70;;;;;;4983749;28;20070;-68
2022/07/04 06:31:01;;;;;;;5.78;5.25;;;29.70;97.00;;;;;;4976643;28;20070;-68
2022/07/04 06:33:27;;;;;;;7.00;5.43;;;29.90;96.40;;;;;;4975880;28;20027;-68
2022/07/04 06:35:55;;;;;;;6.35;5.35;;;30.00;96.20;;;;;;4975878;28;20106;-68
2022/07/04 06:38:24;;;;;;;6.82;5.43;;;30.00;95.70;;;;;;4975056;28;20026;-69
2022/07/04 06:40:51;;;;;;;7.20;6.60;;;30.10;95.90;;;;;;4974567;28;20019;-68
2022/07/04 06:43:17;;;;;;;7.50;6.80;;;30.20;96.30;;;;;;4974971;28;20082;-68
2022/07/04 06:45:42;;;;;;;7.10;6.28;;;30.30;96.10;;;;;;4975198;28;20299;-69
2022/07/04 06:48:08;;;;;;;8.13;6.32;;;30.40;95.30;;;;;;4975666;28;20090;-69
2022/07/04 06:50:35;;;;;;;6.10;5.65;;;30.70;95.40;;;;;;4977298;28;20027;-68
2022/07/04 06:53:05;;;;;;;5.63;5.13;;;30.80;95.30;;;;;;4993707;28;20104;-68
2022/07/04 06:55:31;;;;;;;9.07;7.30;;;31.00;94.00;;;;;;4996892;28;20105;-68
2022/07/04 06:57:57;;;;;;;6.28;5.68;;;31.00;94.10;;;;;;4987467;28;20105;-69
2022/07/04 07:00:22;;;;;;;5.53;5.13;;;31.20;94.50;;;;;;4994584;28;20062;-69
2022/07/04 07:02:48;;;;;;;5.75;5.25;;;31.40;93.80;;;;;;4996391;28;20027;-69
2022/07/04 07:05:14;;;;;;;5.82;5.20;;;31.60;94.00;;;;;;4997027;28;20535;-68
2022/07/04 07:07:39;;;;;;;7.18;6.07;;;31.70;93.50;;;;;;4994590;28;20070;-68
2022/07/04 07:10:06;;;;;;;6.20;5.70;;;31.80;92.30;;;;;;4992153;28;20072;-68
2022/07/04 07:12:33;;;;;;;6.03;5.53;;;31.80;92.20;;;;;;4996594;28;20081;-68
2022/07/04 07:14:59;;;;;;;5.00;4.60;;;32.00;92.60;;;;;;4995663;28;20042;-68
2022/07/04 07:17:26;;;;;;;7.05;6.43;;;32.20;91.80;;;;;;4990847;28;20022;-69
2022/07/04 07:19:51;;;;;;;6.35;5.85;;;32.20;91.90;;;;;;4989492;28;20026;-68
2022/07/04 07:22:17;;;;;;;5.03;4.63;;;32.30;91.00;;;;;;4986390;28;20026;-68
2022/07/04 07:24:43;;;;;;;4.88;4.55;;;32.40;90.60;;;;;;4993487;28;20033;-69
2022/07/04 07:27:09;;;;;;;4.78;4.47;;;32.50;90.90;;;;;;4995724;28;20026;-69
2022/07/04 07:29:36;;;;;;;4.80;4.45;;;32.70;87.10;;;;;;4996351;28;20049;-69
2022/07/04 07:32:02;;;;;;;5.03;4.63;;;32.80;87.70;;;;;;4995874;28;20030;-69
2022/07/04 07:34:28;;;;;;;4.65;4.25;;;32.80;86.70;;;;;;4996180;28;20022;-68
2022/07/04 07:36:54;;;;;;;5.13;4.72;;;32.90;85.10;;;;;;4995798;28;20079;-69
2022/07/04 07:39:20;;;;;;;5.47;5.03;;;33.00;84.10;;;;;;4996159;28;20046;-68
2022/07/04 07:41:46;;;;;;;4.97;4.40;;;33.00;83.90;;;;;;4996028;28;20073;-68
2022/07/04 07:44:12;;;;;;;4.65;4.25;;;33.20;83.80;;;;;;4994275;28;20077;-68
2022/07/04 07:46:38;;;;;;;4.05;3.67;;;33.50;78.50;;;;;;4994978;28;20041;-68
2022/07/04 07:49:04;;;;;;;4.70;4.20;;;34.50;79.20;;;;;;4993939;28;20481;-68
2022/07/04 07:51:30;;;;;;;4.18;3.75;;;36.20;74.40;;;;;;4992134;28;20108;-68
2022/07/04 07:53:56;;;;;;;4.25;3.90;;;37.60;66.70;;;;;;4992208;28;20030;-68
2022/07/04 07:56:22;;;;;;;5.65;3.95;;;38.30;66.20;;;;;;4993290;28;20034;-69
2022/07/04 07:58:48;;;;;;;7.65;5.68;;;39.40;62.70;;;;;;4993489;28;20027;-69
2022/07/04 08:01:14;;;;;;;4.93;4.63;;;39.80;58.90;;;;;;4994540;28;20033;-68
2022/07/04 08:06:24;;;;;;;5.40;4.65;;;40.90;57.70;;;;;;4993599;28;20512;-68
2022/07/04 08:08:50;;;;;;;5.40;4.22;;;41.90;55.00;;;;;;4993564;28;20031;-69
2022/07/04 08:11:16;;;;;;;4.10;3.78;;;42.10;52.20;;;;;;4993553;28;20267;-68
2022/07/04 08:13:42;;;;;;;3.38;3.08;;;42.40;50.80;;;;;;4993341;28;20042;-69
2022/07/04 08:16:08;;;;;;;3.25;3.05;;;42.90;50.10;;;;;;4993600;28;20022;-68
2022/07/04 08:18:34;;;;;;;4.18;3.80;;;43.20;48.50;;;;;;4993255;28;20192;-69
2022/07/04 08:21:00;;;;;;;4.80;3.58;;;42.60;49.00;;;;;;4994778;28;20032;-69
2022/07/04 08:23:28;;;;;;;3.67;3.38;;;41.30;49.60;;;;;;4994904;28;20014;-69
2022/07/04 08:25:54;;;;;;;4.10;3.70;;;40.60;49.80;;;;;;4995338;28;20022;-69
2022/07/04 08:28:19;;;;;;;4.10;3.72;;;39.80;49.80;;;;;;4995198;28;20583;-68
2022/07/04 08:30:45;;;;;;;5.18;4.68;;;39.40;51.40;;;;;;4995253;28;20073;-68
2022/07/04 08:33:11;;;;;;;9.30;5.90;;;38.70;51.80;;;;;;4994979;28;20034;-68
2022/07/04 08:35:36;;;;;;;6.05;5.55;;;38.00;52.40;;;;;;4994865;28;20054;-68
2022/07/04 08:38:02;;;;;;;6.50;5.90;;;37.20;53.90;;;;;;4993652;28;20101;-68
2022/07/04 08:40:30;;;;;;;6.07;5.38;;;37.40;54.00;;;;;;4994972;28;20060;-68
2022/07/04 08:42:56;;;;;;;5.50;5.00;;;38.80;54.70;;;;;;4994961;28;20408;-68
2022/07/04 08:45:32;;;;;;;5.22;4.82;;;40.20;51.60;;;;;;4994958;28;20504;-69
2022/07/04 08:48:06;;;;;;;5.50;4.80;;;41.10;50.10;;;;;;4994509;28;20089;-69
2022/07/04 08:50:49;;;;;;;6.07;5.05;;;41.70;51.00;;;;;;4994434;28;20101;-68
2022/07/04 08:53:18;;;;;;;5.47;4.47;;;41.90;49.00;;;;;;4993943;28;20102;-69
2022/07/04 08:58:30;;;;;;;4.43;4.03;;;42.40;48.90;;;;;;4994299;28;20169;-68
2022/07/04 09:01:05;;;;;;;4.00;3.70;;;42.70;47.20;;;;;;4991447;28;20023;-69
2022/07/04 09:03:31;;;;;;;3.72;3.42;;;43.00;46.60;;;;;;4993473;28;20038;-69
2022/07/04 09:05:58;;;;;;;3.10;2.90;;;43.10;48.20;;;;;;4994201;28;20380;-69
2022/07/04 09:08:24;;;;;;;3.00;2.80;;;42.80;44.60;;;;;;4992760;28;20101;-69
2022/07/04 09:10:51;;;;;;;3.63;2.97;;;43.00;45.80;;;;;;4994379;28;20018;-69
2022/07/04 09:13:17;;;;;;;3.25;2.95;;;43.20;46.50;;;;;;4994047;28;20178;-68
2022/07/04 09:15:46;;;;;;;3.30;3.00;;;42.90;45.40;;;;;;4994395;28;20029;-68
2022/07/04 09:18:29;;;;;;;3.47;3.15;;;43.00;44.30;;;;;;4994290;28;20473;-68
2022/07/04 09:20:57;;;;;;;4.85;2.92;;;43.00;45.10;;;;;;4992988;28;20031;-68
2022/07/04 09:23:25;;;;;;;3.15;2.95;;;42.90;46.50;;;;;;4992268;28;20073;-69
2022/07/04 09:26:11;;;;;;;3.10;2.80;;;42.90;45.50;;;;;;4993189;28;20496;-68
2022/07/04 09:28:38;;;;;;;2.88;2.67;;;43.30;44.80;;;;;;4982483;28;20532;-69
2022/07/04 09:31:15;;;;;;;2.97;2.60;;;43.40;45.10;;;;;;4993107;28;20077;-69
2022/07/04 09:34:03;;;;;;;3.17;2.90;;;43.70;43.40;;;;;;4992170;28;20116;-69
2022/07/04 09:36:32;;;;;;;2.55;2.35;;;43.70;44.90;;;;;;4992412;28;20487;-69
2022/07/04 09:39:20;;;;;;;3.20;2.90;;;43.70;41.70;;;;;;4994238;28;20109;-69
2022/07/04 09:41:55;;;;;;;2.95;2.53;;;43.60;41.80;;;;;;4993045;28;20113;-69
2022/07/04 09:44:22;;;;;;;6.28;2.80;;;43.10;40.00;;;;;;4985110;28;20045;-69
2022/07/04 09:46:48;;;;;;;3.38;2.70;;;43.10;40.10;;;;;;4974452;28;20034;-69
2022/07/04 09:49:14;;;;;;;3.47;2.85;;;42.80;40.30;;;;;;4979754;28;20046;-69
2022/07/04 09:51:50;;;;;;;5.45;3.08;;;42.70;40.30;;;;;;4993912;28;20022;-69
2022/07/04 09:54:19;;;;;;;7.43;3.17;;;42.10;39.80;;;;;;4993775;28;20027;-69
2022/07/04 09:56:59;;;;;;;4.13;2.70;;;42.00;40.20;;;;;;4993869;28;20026;-69
2022/07/04 09:59:29;;;;;;;3.85;3.05;;;42.20;41.30;;;;;;4992972;28;20026;-69
2022/07/04 10:02:07;;;;;;;4.28;3.00;;;42.50;42.10;;;;;;4997658;28;20101;-69
2022/07/04 10:04:49;;;;;;;6.28;3.30;;;42.30;41.30;;;;;;4997886;28;20014;-69
2022/07/04 10:07:54;;;;;;;3.17;2.80;;;42.10;39.60;;;;;;4996939;28;20028;-69
2022/07/04 10:10:23;;;;;;;2.90;2.67;;;42.30;41.00;;;;;;4956908;29;20027;-69
2022/07/04 10:12:50;;;;;;;3.95;2.38;;;42.40;40.20;;;;;;4956093;28;20109;-69
2022/07/04 10:15:17;;;;;;;3.60;3.13;;;42.60;39.70;;;;;;4976680;28;20053;-69
2022/07/04 10:17:43;;;;;;;2.85;2.65;;;42.40;39.90;;;;;;4997417;28;20022;-69
2022/07/04 10:20:11;;;;;;;4.63;2.88;;;42.20;42.10;;;;;;4997131;28;20028;-69
2022/07/04 10:22:37;;;;;;;3.92;2.90;;;42.40;40.80;;;;;;4977037;28;20498;-69
2022/07/04 10:25:05;;;;;;;2.72;2.53;;;42.40;40.90;;;;;;4986179;28;20160;-69
2022/07/04 10:27:31;;;;;;;3.00;2.70;;;42.40;42.60;;;;;;4984631;28;20248;-70
2022/07/04 10:29:58;;;;;;;2.78;2.58;;;42.80;41.80;;;;;;4996690;28;20033;-69
2022/07/04 10:32:26;;;;;;;5.18;3.47;;;43.10;40.80;;;;;;4995343;28;20026;-69
2022/07/04 10:34:51;;;;;;;7.93;3.83;;;42.90;40.80;;;;;;4996236;28;20049;-69
2022/07/04 10:37:17;;;;;;;6.70;3.83;;;42.80;41.20;;;;;;4993146;28;20722;-69
2022/07/04 10:39:43;;;;;;;3.42;3.13;;;42.20;42.10;;;;;;4990771;28;20042;-70
2022/07/04 10:42:21;;;;;;;6.00;3.70;;;42.20;42.70;;;;;;4995106;28;20551;-69
2022/07/04 10:44:49;;;;;;;4.00;3.70;;;42.30;42.30;;;;;;4995344;28;20037;-69
2022/07/04 10:47:27;;;;;;;3.67;3.20;;;42.30;40.90;;;;;;4995259;28;20015;-69
2022/07/04 10:49:52;;;;;;;5.00;3.85;;;42.40;42.30;;;;;;4994484;28;20034;-69
2022/07/04 10:52:18;;;;;;;3.22;2.92;;;42.50;40.60;;;;;;4994982;28;20499;-69
2022/07/04 10:54:45;;;;;;;3.63;3.25;;;42.60;42.40;;;;;;4992960;28;20427;-70
2022/07/04 10:57:20;;;;;;;3.50;3.30;;;42.60;42.80;;;;;;4991305;28;20047;-70
2022/07/04 10:59:52;;;;;;;4.00;3.70;;;42.80;43.20;;;;;;4994454;28;20033;-71
2022/07/04 11:02:17;;;;;;;4.65;3.40;;;42.70;42.70;;;;;;4995548;28;20134;-70
2022/07/04 11:04:52;;;;;;;4.68;4.28;;;42.70;43.10;;;;;;4995370;28;20022;-71
2022/07/04 11:07:42;;;;;;;4.35;3.40;;;42.90;42.30;;;;;;4995122;28;20072;-68
2022/07/04 11:12:54;;;;;;;3.83;3.38;;;43.00;42.20;;;;;;4993512;28;20050;-69
2022/07/04 11:15:32;;;;;;;4.00;3.70;;;43.30;42.10;;;;;;4992673;28;20038;-69
2022/07/04 11:18:04;;;;;;;4.43;4.00;;;43.30;42.70;;;;;;4993504;28;20578;-72
2022/07/04 11:20:32;;;;;;;3.70;3.50;;;43.00;42.30;;;;;;4994276;28;20069;-71
2022/07/04 11:23:11;;;;;;;3.97;3.67;;;43.00;42.10;;;;;;4994350;28;20041;-71
2022/07/04 11:25:38;;;;;;;3.72;3.50;;;43.30;43.50;;;;;;4995040;28;20025;-71
2022/07/04 11:28:26;;;;;;;4.18;3.80;;;43.50;42.20;;;;;;4995145;28;20105;-68
2022/07/04 11:30:52;;;;;;;4.65;4.22;;;43.70;41.80;;;;;;4996084;28;20044;-69
2022/07/04 11:33:21;;;;;;;4.50;4.20;;;43.80;41.40;;;;;;4995564;28;20026;-69
2022/07/04 11:36:09;;;;;;;4.60;4.20;;;43.80;42.00;;;;;;5010310;28;20253;-70
2022/07/04 11:38:56;;;;;;;4.88;4.47;;;43.90;41.20;;;;;;4994774;28;20481;-70
2022/07/04 11:47:19;;;;;;;4.15;3.85;;;43.90;42.20;;;;;;4994631;28;20400;-69
2022/07/04 11:49:50;;;;;;;4.57;4.22;;;43.90;40.50;;;;;;4987585;28;20039;-70
2022/07/04 11:52:24;;;;;;;4.82;4.43;;;43.70;40.60;;;;;;4992888;28;20097;-69
2022/07/04 11:54:51;;;;;;;4.85;4.53;;;43.50;41.00;;;;;;4993483;28;20046;-70
2022/07/04 11:57:19;;;;;;;5.72;5.22;;;43.70;41.20;;;;;;4994005;28;20018;-69
2022/07/04 11:59:59;;;;;;;5.40;4.82;;;43.50;41.10;;;;;;4994172;28;20026;-70
2022/07/04 12:02:27;;;;;;;5.37;4.87;;;43.30;41.40;;;;;;4994712;28;20022;-69
2022/07/04 12:04:53;;;;;;;5.30;4.95;;;43.30;41.00;;;;;;4995338;28;20046;-70
2022/07/04 12:07:20;;;;;;;6.35;5.18;;;43.40;42.10;;;;;;4995700;28;20031;-69
2022/07/04 12:09:48;;;;;;;6.03;5.50;;;43.50;43.30;;;;;;4984928;28;20464;-70
2022/07/04 12:12:17;;;;;;;5.80;5.30;;;43.60;41.90;;;;;;4990299;28;20078;-70
2022/07/04 12:15:00;;;;;;;5.70;5.10;;;43.80;40.70;;;;;;4994774;28;20030;-69
2022/07/04 12:17:35;;;;;;;6.97;5.90;;;43.50;40.90;;;;;;4993852;28;20030;-70
2022/07/04 12:20:17;;;;;;;5.88;5.47;;;43.10;40.10;;;;;;4990716;28;20434;-70
2022/07/04 12:23:03;;;;;;;6.65;6.03;;;43.00;40.30;;;;;;4995621;28;20540;-70
2022/07/04 12:25:36;;;;;;;6.15;5.75;;;42.80;39.80;;;;;;4999622;28;20568;-70
2022/07/04 12:28:14;;;;;;;6.05;5.43;;;42.70;39.70;;;;;;4995036;28;20080;-72
2022/07/04 12:30:55;;;;;;;5.55;5.25;;;42.70;41.40;;;;;;5010778;28;20085;-71
2022/07/04 12:33:24;;;;;;;6.22;5.80;;;42.70;40.30;;;;;;4993125;28;20026;-69
2022/07/04 12:36:03;;;;;;;5.53;5.10;;;42.60;40.90;;;;;;4995181;28;20393;-71
2022/07/04 12:38:29;;;;;;;6.20;5.43;;;42.60;41.90;;;;;;4995409;28;20026;-72
2022/07/04 12:40:57;;;;;;;6.10;5.60;;;42.70;40.80;;;;;;4993137;28;20039;-71
2022/07/04 12:43:26;;;;;;;6.43;5.85;;;42.80;41.30;;;;;;4993041;28;20026;-71
2022/07/04 12:45:54;;;;;;;6.22;5.82;;;42.80;41.50;;;;;;4993301;28;20454;-69
2022/07/04 12:48:28;;;;;;;6.20;5.70;;;42.90;41.60;;;;;;4993065;28;20022;-69
2022/07/04 12:51:09;;;;;;;6.82;6.25;;;43.20;41.90;;;;;;4993171;28;20049;-71
2022/07/04 12:53:39;;;;;;;6.40;5.90;;;43.10;40.60;;;;;;4993138;28;20030;-72
2022/07/04 12:56:06;;;;;;;6.40;5.90;;;43.40;40.80;;;;;;4993110;28;20022;-71
2022/07/04 12:58:31;;;;;;;6.28;5.78;;;43.50;40.40;;;;;;4994684;28;20049;-71
2022/07/04 13:00:57;;;;;;;7.50;6.90;;;43.30;40.00;;;;;;4994758;28;20030;-71
2022/07/04 13:03:23;;;;;;;7.28;6.78;;;42.70;39.80;;;;;;5009769;28;20026;-70
2022/07/04 13:05:49;;;;;;;8.30;7.47;;;42.30;42.30;;;;;;4993411;28;20022;-71
2022/07/04 13:08:15;;;;;;;7.07;6.53;;;42.30;40.80;;;;;;4994415;28;20118;-71
2022/07/04 13:10:41;;;;;;;8.05;7.45;;;42.20;39.80;;;;;;4994675;28;20026;-70
2022/07/04 13:13:07;;;;;;;7.70;7.13;;;42.50;40.40;;;;;;4994359;28;20505;-70